createdAt,value
2023-02-02T00:14:05.692Z,6.1
2023-02-02T00:29:05.687Z,6.1
2023-02-02T00:44:05.694Z,6.1
2023-02-02T00:59:05.615Z,6
2023-02-02T01:14:05.596Z,6
2023-02-02T01:29:05.718Z,6
2023-02-02T01:44:05.619Z,6.1
2023-02-02T01:59:05.708Z,6.2
2023-02-02T02:14:05.718Z,6.2
2023-02-02T02:29:05.616Z,6.2
2023-02-02T02:44:05.675Z,6.3
2023-02-02T02:59:05.683Z,6.3
2023-02-02T03:14:05.622Z,6.2
2023-02-02T03:29:05.734Z,6.2
2023-02-02T03:44:05.720Z,6.2
2023-02-02T03:59:05.593Z,6.2
2023-02-02T04:14:05.709Z,6.2
2023-02-02T04:29:05.687Z,6.2
2023-02-02T04:44:05.628Z,6
2023-02-02T04:59:05.709Z,6
2023-02-02T05:14:05.723Z,6
2023-02-02T05:29:05.713Z,5.9
2023-02-02T05:44:05.618Z,5.8
2023-02-02T05:59:05.618Z,5.7
2023-02-02T06:14:05.623Z,5.6
2023-02-02T06:29:05.696Z,5.6
2023-02-02T06:44:05.602Z,5.7
2023-02-02T06:59:05.716Z,5.6
2023-02-02T07:14:05.719Z,5.8
2023-02-02T07:29:05.716Z,5.8
2023-02-02T07:44:05.607Z,5.8
2023-02-02T07:59:05.732Z,5.8
2023-02-02T08:14:05.597Z,5.9
2023-02-02T08:29:05.697Z,5.9
2023-02-02T08:44:05.600Z,5.9
2023-02-02T08:59:05.691Z,5.9
2023-02-02T09:14:05.607Z,5.9
2023-02-02T09:29:05.711Z,6
2023-02-02T09:44:05.722Z,5.9
2023-02-02T09:59:17.851Z,6.1
2023-02-02T10:14:05.638Z,6.2
2023-02-02T10:29:05.690Z,6.4
2023-02-02T10:44:05.602Z,6.5
2023-02-02T10:59:05.715Z,6.6
2023-02-02T11:14:05.697Z,6.6
2023-02-02T11:29:05.723Z,6.8
2023-02-02T11:44:05.611Z,6.9
2023-02-02T11:59:05.727Z,7.1
2023-02-02T12:14:05.597Z,7.4
2023-02-02T12:29:05.713Z,7.9
2023-02-02T12:44:05.694Z,7.8
2023-02-02T12:59:05.708Z,7.8
2023-02-02T13:14:05.714Z,8.1
2023-02-02T13:29:05.704Z,8.5
2023-02-02T13:44:05.699Z,8.6
2023-02-02T13:59:05.692Z,8.2
2023-02-02T14:14:05.707Z,8.3
2023-02-02T14:29:05.946Z,8.2
2023-02-02T14:44:05.599Z,8.3
2023-02-02T14:59:05.722Z,8.2
2023-02-02T15:14:05.617Z,8.2
2023-02-02T15:29:05.716Z,8.2
2023-02-02T15:44:05.693Z,8.2
2023-02-02T15:59:05.696Z,8.1
2023-02-02T16:14:05.603Z,8.1
2023-02-02T16:29:05.687Z,8.1
2023-02-02T16:44:05.729Z,8
2023-02-02T16:59:05.670Z,7.9
2023-02-02T17:14:05.610Z,7.9
2023-02-02T17:29:05.706Z,7.9
2023-02-02T17:44:05.618Z,7.9
2023-02-02T17:59:05.684Z,7.9
2023-02-02T18:14:05.795Z,7.9
2023-02-02T18:29:05.621Z,7.9
2023-02-02T18:44:05.764Z,7.9
2023-02-02T18:59:05.690Z,7.8
2023-02-02T19:14:05.603Z,7.8
2023-02-02T19:29:05.699Z,7.7
2023-02-02T19:44:05.614Z,7.7
2023-02-02T19:59:05.686Z,7.7
2023-02-02T20:14:05.701Z,7.8
2023-02-02T20:29:05.687Z,7.8
2023-02-02T20:44:05.639Z,7.7
2023-02-02T20:59:07.275Z,7.8
2023-02-02T21:14:05.609Z,7.7
2023-02-02T21:29:05.699Z,7.7
2023-02-02T21:44:05.600Z,7.8
2023-02-02T21:59:05.692Z,7.8
2023-02-02T22:14:05.641Z,7.8
2023-02-02T22:29:05.637Z,7.8
2023-02-02T22:44:05.696Z,7.8
2023-02-02T22:59:05.596Z,7.8
2023-02-02T23:14:05.685Z,7.8
2023-02-02T23:29:05.703Z,7.8
2023-02-02T23:44:05.606Z,7.8
2023-02-02T23:59:05.705Z,7.8
